KSGR/SGR METAR and TAF weather

Enter ICAO airport designator
Station Type Date Time Source
KSGR METAR 2021/08/05 04:53 UTC NOAA

KSGR 050453Z AUTO 06004KT 10SM OVC080 29/23 A3002 RMK AO2 SLP165 T02940228


Station Type Date Time Source
KSGR Decoded METAR 2021/08/05 04:53 UTC NOAA

SUGARLAND REGIONAL AIRPORT, TX, United States (KSGR) 29-37N 095-39W
Aug 05, 2021 - 12:53 AM EDT / 2021.08.05 0453 UTC
Wind: from the ENE (060 degrees) at 5 MPH (4 KT):0
Visibility: 10 mile(s):0
Sky conditions: overcast
Temperature: 84.9 F (29.4 C)
Dew Point: 73.0 F (22.8 C)
Relative Humidity: 67%
Pressure (altimeter): 30.02 in. Hg (1016 hPa)
ob: KSGR 050453Z AUTO 06004KT 10SM OVC080 29/23 A3002 RMK AO2 SLP165 T02940228
cycle: 5

Station Type Date Time Source
KSGR TAF 2021/08/04 18:22 UTC NOAA

TAF KSGR 041720Z 0418/0518 11008KT P6SM VCTS FEW025CB FEW050 SCT090
FM050000 VRB04KT P6SM SCT030 BKN250
FM051500 12007KT P6SM FEW035 SCT070

Example: see airport list